PWSweather.com
Personal Weather Stations
Station Observations
IPORTUGA89
BarosaPT

BarosaPT

Lat: 39.754028, Lon: -8.843

Elevation: 98

Station Type: Davis Vp2

High Low Average
Temperature 57.6°F14.2°C 42.1°F5.6°C 48.2°F9.0°C
Dew Point 51.1°F10.6°C 39.2°F4.0°C 44.6°F7.0°C
Winds 11.0 mph 17.7 kmh Calm Calm 3.0 mph SW4.8 kmh SW
Wind Gusts 17.9 mph28.8 kmh -- 6.0 mph9.7 kmh
Humidity 94% 73% 88%
Pressure 30.36 in1028.1 mb 30.18 in1022.0 mb -
Precipitation 0.07 in1.8 mm - -
Hour Temp Dew Point Humidity Winds Wind Gusts Pressure Precip Precip Rate Daily Precip Total
12:03 AM 42.3°F5.7°C 39.2°F4.0°C 89% Calm Calm -- 30.26 in1024.7 mb 0.00 in0.0 mm 0.00 in0.0 mm 0.00 in0.0 mm
12:14 AM 42.3°F5.7°C 39.2°F4.0°C 89% Calm Calm -- 30.26 in1024.7 mb 0.00 in0.0 mm 0.00 in0.0 mm 0.00 in0.0 mm
12:24 AM 42.3°F5.7°C 39.2°F4.0°C 89% Calm Calm -- 30.26 in1024.7 mb 0.00 in0.0 mm 0.00 in0.0 mm 0.00 in0.0 mm
12:34 AM 42.3°F5.7°C 39.2°F4.0°C 89% Calm Calm -- 30.26 in1024.7 mb 0.00 in0.0 mm 0.00 in0.0 mm 0.00 in0.0 mm
12:44 AM 42.4°F5.8°C 39.4°F4.1°C 89% Calm Calm -- 30.25 in1024.4 mb 0.00 in0.0 mm 0.00 in0.0 mm 0.00 in0.0 mm
12:54 AM 42.4°F5.8°C 39.4°F4.1°C 89% Calm Calm -- 30.25 in1024.4 mb 0.00 in0.0 mm 0.00 in0.0 mm 0.00 in0.0 mm
01:04 AM 42.4°F5.8°C 39.4°F4.1°C 89% Calm Calm -- 30.25 in1024.4 mb 0.00 in0.0 mm 0.00 in0.0 mm 0.00 in0.0 mm
01:14 AM 42.6°F5.9°C 39.6°F4.2°C 89% Calm Calm -- 30.24 in1024.0 mb 0.00 in0.0 mm 0.00 in0.0 mm 0.00 in0.0 mm
01:25 AM 42.6°F5.9°C 39.9°F4.4°C 90% Calm Calm -- 30.24 in1024.0 mb 0.00 in0.0 mm 0.00 in0.0 mm 0.01 in0.3 mm
01:35 AM 42.6°F5.9°C 39.9°F4.4°C 90% Calm Calm -- 30.24 in1024.0 mb 0.02 in0.5 mm 0.12 in3.0 mm 0.02 in0.5 mm
01:45 AM 42.3°F5.7°C 39.6°F4.2°C 90% Calm Calm -- 30.24 in1024.0 mb 0.02 in0.5 mm 0.00 in0.0 mm 0.02 in0.5 mm
01:55 AM 42.3°F5.7°C 39.6°F4.2°C 90% Calm Calm -- 30.23 in1023.7 mb 0.02 in0.5 mm 0.00 in0.0 mm 0.02 in0.5 mm
02:05 AM 42.1°F5.6°C 39.6°F4.2°C 91% Calm Calm -- 30.23 in1023.7 mb 0.02 in0.5 mm 0.00 in0.0 mm 0.02 in0.5 mm
02:15 AM 42.1°F5.6°C 39.6°F4.2°C 91% Calm Calm -- 30.23 in1023.7 mb 0.02 in0.5 mm 0.00 in0.0 mm 0.02 in0.5 mm
02:25 AM 42.1°F5.6°C 39.6°F4.2°C 91% Calm Calm -- 30.22 in1023.4 mb 0.03 in0.8 mm 0.06 in1.5 mm 0.03 in0.8 mm
02:35 AM 42.1°F5.6°C 39.9°F4.4°C 92% Calm Calm -- 30.22 in1023.4 mb 0.02 in0.5 mm 0.00 in0.0 mm 0.04 in1.0 mm
02:45 AM 42.3°F5.7°C 40.1°F4.5°C 92% Calm Calm -- 30.22 in1023.4 mb 0.02 in0.5 mm 0.00 in0.0 mm 0.05 in1.3 mm
02:55 AM 42.4°F5.8°C 40.3°F4.6°C 92% Calm Calm -- 30.21 in1023.0 mb 0.02 in0.5 mm 0.00 in0.0 mm 0.06 in1.5 mm
03:06 AM 42.4°F5.8°C 40.3°F4.6°C 92% Calm Calm -- 30.21 in1023.0 mb 0.03 in0.8 mm 0.01 in0.3 mm 0.06 in1.5 mm
03:16 AM 42.6°F5.9°C 40.8°F4.9°C 93% Calm Calm -- 30.20 in1022.7 mb 0.03 in0.8 mm 0.00 in0.0 mm 0.06 in1.5 mm
03:26 AM 42.6°F5.9°C 40.5°F4.7°C 92% Calm Calm -- 30.20 in1022.7 mb 0.03 in0.8 mm 0.00 in0.0 mm 0.06 in1.5 mm
03:36 AM 43.0°F6.1°C 41.2°F5.1°C 93% Calm Calm -- 30.20 in1022.7 mb 0.02 in0.5 mm 0.00 in0.0 mm 0.06 in1.5 mm
03:46 AM 43.2°F6.2°C 41.4°F5.2°C 93% Calm Calm -- 30.19 in1022.4 mb 0.02 in0.5 mm 0.00 in0.0 mm 0.06 in1.5 mm
03:56 AM 43.5°F6.4°C 41.7°F5.4°C 93% Calm Calm -- 30.19 in1022.4 mb 0.01 in0.3 mm 0.00 in0.0 mm 0.06 in1.5 mm
04:06 AM 43.5°F6.4°C 41.7°F5.4°C 93% Calm Calm -- 30.19 in1022.4 mb 0.01 in0.3 mm 0.00 in0.0 mm 0.06 in1.5 mm
04:17 AM 43.5°F6.4°C 41.7°F5.4°C 93% Calm Calm -- 30.19 in1022.4 mb 0.01 in0.3 mm 0.00 in0.0 mm 0.06 in1.5 mm
04:27 AM 43.7°F6.5°C 41.7°F5.4°C 93% Calm Calm -- 30.19 in1022.4 mb 0.00 in0.0 mm 0.00 in0.0 mm 0.06 in1.5 mm
04:37 AM 43.7°F6.5°C 41.7°F5.4°C 93% Calm Calm -- 30.19 in1022.4 mb 0.00 in0.0 mm 0.00 in0.0 mm 0.06 in1.5 mm
04:47 AM 43.9°F6.6°C 41.9°F5.5°C 93% Calm Calm -- 30.19 in1022.4 mb 0.00 in0.0 mm 0.00 in0.0 mm 0.06 in1.5 mm
04:57 AM 44.1°F6.7°C 42.1°F5.6°C 93% Calm Calm -- 30.19 in1022.4 mb 0.00 in0.0 mm 0.00 in0.0 mm 0.06 in1.5 mm
05:07 AM 44.1°F6.7°C 42.1°F5.6°C 93% Calm Calm -- 30.18 in1022.0 mb 0.00 in0.0 mm 0.00 in0.0 mm 0.06 in1.5 mm
05:17 AM 44.2°F6.8°C 42.6°F5.9°C 94% Calm Calm -- 30.19 in1022.4 mb 0.00 in0.0 mm 0.00 in0.0 mm 0.06 in1.5 mm
05:27 AM 44.4°F6.9°C 42.8°F6.0°C 94% Calm Calm -- 30.19 in1022.4 mb 0.00 in0.0 mm 0.00 in0.0 mm 0.06 in1.5 mm
05:37 AM 44.4°F6.9°C 42.8°F6.0°C 94% Calm Calm -- 30.19 in1022.4 mb 0.00 in0.0 mm 0.00 in0.0 mm 0.06 in1.5 mm
05:47 AM 44.4°F6.9°C 42.8°F6.0°C 94% Calm Calm -- 30.19 in1022.4 mb 0.00 in0.0 mm 0.00 in0.0 mm 0.06 in1.5 mm
05:58 AM 44.4°F6.9°C 42.8°F6.0°C 94% Calm Calm -- 30.19 in1022.4 mb 0.00 in0.0 mm 0.00 in0.0 mm 0.06 in1.5 mm
06:08 AM 44.6°F7.0°C 43.0°F6.1°C 94% Calm Calm -- 30.19 in1022.4 mb 0.00 in0.0 mm 0.00 in0.0 mm 0.06 in1.5 mm
06:18 AM 44.6°F7.0°C 43.0°F6.1°C 94% Calm Calm -- 30.19 in1022.4 mb 0.00 in0.0 mm 0.00 in0.0 mm 0.06 in1.5 mm
06:28 AM 44.6°F7.0°C 43.0°F6.1°C 94% Calm Calm -- 30.19 in1022.4 mb 0.00 in0.0 mm 0.00 in0.0 mm 0.06 in1.5 mm
06:38 AM 44.6°F7.0°C 43.0°F6.1°C 94% Calm Calm -- 30.20 in1022.7 mb 0.00 in0.0 mm 0.00 in0.0 mm 0.06 in1.5 mm
06:48 AM 44.8°F7.1°C 43.2°F6.2°C 94% Calm Calm -- 30.20 in1022.7 mb 0.00 in0.0 mm 0.00 in0.0 mm 0.06 in1.5 mm
06:58 AM 44.6°F7.0°C 43.0°F6.1°C 94% Calm Calm -- 30.19 in1022.4 mb 0.00 in0.0 mm 0.00 in0.0 mm 0.06 in1.5 mm
07:08 AM 44.6°F7.0°C 43.0°F6.1°C 94% Calm Calm -- 30.19 in1022.4 mb 0.00 in0.0 mm 0.00 in0.0 mm 0.06 in1.5 mm
07:19 AM 44.6°F7.0°C 43.0°F6.1°C 94% Calm Calm -- 30.20 in1022.7 mb 0.00 in0.0 mm 0.00 in0.0 mm 0.06 in1.5 mm
07:29 AM 44.8°F7.1°C 43.2°F6.2°C 94% Calm Calm -- 30.21 in1023.0 mb 0.00 in0.0 mm 0.00 in0.0 mm 0.06 in1.5 mm
07:39 AM 44.8°F7.1°C 43.2°F6.2°C 94% Calm Calm -- 30.21 in1023.0 mb 0.00 in0.0 mm 0.00 in0.0 mm 0.06 in1.5 mm
07:49 AM 45.0°F7.2°C 43.3°F6.3°C 94% Calm Calm -- 30.21 in1023.0 mb 0.00 in0.0 mm 0.00 in0.0 mm 0.06 in1.5 mm
07:59 AM 45.0°F7.2°C 43.3°F6.3°C 94% Calm Calm -- 30.22 in1023.4 mb 0.00 in0.0 mm 0.00 in0.0 mm 0.06 in1.5 mm
08:09 AM 45.0°F7.2°C 43.3°F6.3°C 94% Calm Calm -- 30.22 in1023.4 mb 0.00 in0.0 mm 0.00 in0.0 mm 0.06 in1.5 mm
08:19 AM 45.1°F7.3°C 43.5°F6.4°C 94% Calm Calm -- 30.22 in1023.4 mb 0.00 in0.0 mm 0.00 in0.0 mm 0.06 in1.5 mm
08:30 AM 45.3°F7.4°C 43.7°F6.5°C 94% Calm Calm -- 30.22 in1023.4 mb 0.00 in0.0 mm 0.00 in0.0 mm 0.06 in1.5 mm
08:40 AM 45.3°F7.4°C 43.7°F6.5°C 94% 2.0 mph NE3.2 kmh NE 6.9 mph11.1 kmh 30.23 in1023.7 mb 0.00 in0.0 mm 0.00 in0.0 mm 0.06 in1.5 mm
08:50 AM 45.3°F7.4°C 43.7°F6.5°C 94% 2.0 mph E3.2 kmh E 8.1 mph13.0 kmh 30.23 in1023.7 mb 0.00 in0.0 mm 0.00 in0.0 mm 0.06 in1.5 mm
09:00 AM 45.7°F7.6°C 44.1°F6.7°C 94% Calm Calm -- 30.23 in1023.7 mb 0.00 in0.0 mm 0.00 in0.0 mm 0.06 in1.5 mm
09:10 AM 45.9°F7.7°C 44.2°F6.8°C 94% Calm Calm -- 30.24 in1024.0 mb 0.00 in0.0 mm 0.00 in0.0 mm 0.06 in1.5 mm
09:20 AM 46.4°F8.0°C 44.8°F7.1°C 94% Calm Calm 2.0 mph3.2 kmh 30.25 in1024.4 mb 0.00 in0.0 mm 0.00 in0.0 mm 0.06 in1.5 mm
09:30 AM 46.4°F8.0°C 44.4°F6.9°C 93% Calm Calm 0.9 mph1.4 kmh 30.25 in1024.4 mb 0.00 in0.0 mm 0.00 in0.0 mm 0.06 in1.5 mm
09:40 AM 46.6°F8.1°C 44.6°F7.0°C 93% Calm Calm -- 30.25 in1024.4 mb 0.00 in0.0 mm 0.00 in0.0 mm 0.06 in1.5 mm
09:50 AM 46.8°F8.2°C 44.8°F7.1°C 93% 2.0 mph E3.2 kmh E 8.9 mph14.3 kmh 30.26 in1024.7 mb 0.00 in0.0 mm 0.00 in0.0 mm 0.06 in1.5 mm
10:00 AM 46.6°F8.1°C 44.6°F7.0°C 93% 6.9 mph ESE11.1 kmh ESE 11.0 mph17.7 kmh 30.26 in1024.7 mb 0.01 in0.3 mm 0.01 in0.3 mm 0.07 in1.8 mm
10:10 AM 46.6°F8.1°C 44.4°F6.9°C 92% 4.0 mph SE6.4 kmh SE 8.9 mph14.3 kmh 30.26 in1024.7 mb 0.01 in0.3 mm 0.00 in0.0 mm 0.07 in1.8 mm
10:20 AM 46.8°F8.2°C 44.6°F7.0°C 92% 2.9 mph SE4.7 kmh SE 8.1 mph13.0 kmh 30.27 in1025.1 mb 0.01 in0.3 mm 0.00 in0.0 mm 0.07 in1.8 mm
10:30 AM 47.5°F8.6°C 45.3°F7.4°C 92% Calm Calm -- 30.27 in1025.1 mb 0.01 in0.3 mm 0.00 in0.0 mm 0.07 in1.8 mm
10:40 AM 47.7°F8.7°C 45.5°F7.5°C 92% Calm Calm -- 30.27 in1025.1 mb 0.01 in0.3 mm 0.00 in0.0 mm 0.07 in1.8 mm
10:50 AM 48.0°F8.9°C 45.9°F7.7°C 92% Calm Calm 0.9 mph1.4 kmh 30.27 in1025.1 mb 0.01 in0.3 mm 0.00 in0.0 mm 0.07 in1.8 mm
11:00 AM 48.4°F9.1°C 46.2°F7.9°C 92% Calm Calm -- 30.27 in1025.1 mb 0.00 in0.0 mm 0.00 in0.0 mm 0.07 in1.8 mm
11:10 AM 49.5°F9.7°C 47.3°F8.5°C 92% Calm Calm 0.9 mph1.4 kmh 30.27 in1025.1 mb 0.00 in0.0 mm 0.00 in0.0 mm 0.07 in1.8 mm
11:20 AM 50.4°F10.2°C 47.8°F8.8°C 91% Calm Calm 0.9 mph1.4 kmh 30.27 in1025.1 mb 0.00 in0.0 mm 0.00 in0.0 mm 0.07 in1.8 mm
11:30 AM 51.4°F10.8°C 48.9°F9.4°C 91% 2.0 mph ESE3.2 kmh ESE 4.0 mph6.4 kmh 30.27 in1025.1 mb 0.00 in0.0 mm 0.00 in0.0 mm 0.07 in1.8 mm
11:40 AM 52.3°F11.3°C 49.3°F9.6°C 89% 0.9 mph ESE1.4 kmh ESE 4.0 mph6.4 kmh 30.27 in1025.1 mb 0.00 in0.0 mm 0.00 in0.0 mm 0.07 in1.8 mm
11:50 AM 53.8°F12.1°C 50.4°F10.2°C 88% 0.9 mph E1.4 kmh E 2.0 mph3.2 kmh 30.27 in1025.1 mb 0.00 in0.0 mm 0.00 in0.0 mm 0.07 in1.8 mm
12:00 PM 54.1°F12.3°C 50.0°F10.0°C 86% 2.0 mph E3.2 kmh E 4.0 mph6.4 kmh 30.27 in1025.1 mb 0.00 in0.0 mm 0.00 in0.0 mm 0.07 in1.8 mm
12:10 PM 55.2°F12.9°C 50.7°F10.4°C 85% 2.0 mph NNE3.2 kmh NNE 4.9 mph7.9 kmh 30.26 in1024.7 mb 0.00 in0.0 mm 0.00 in0.0 mm 0.07 in1.8 mm
12:20 PM 56.5°F13.6°C 50.7°F10.4°C 81% 4.0 mph NNE6.4 kmh NNE 11.0 mph17.7 kmh 30.26 in1024.7 mb 0.00 in0.0 mm 0.00 in0.0 mm 0.07 in1.8 mm
12:30 PM 57.0°F13.9°C 50.5°F10.3°C 79% 6.0 mph NNW9.7 kmh NNW 12.1 mph19.5 kmh 30.26 in1024.7 mb 0.00 in0.0 mm 0.00 in0.0 mm 0.07 in1.8 mm
12:40 PM 57.4°F14.1°C 50.9°F10.5°C 79% 2.9 mph NNW4.7 kmh NNW 13.0 mph20.9 kmh 30.26 in1024.7 mb 0.00 in0.0 mm 0.00 in0.0 mm 0.07 in1.8 mm
12:50 PM 57.6°F14.2°C 51.1°F10.6°C 79% 6.9 mph NW11.1 kmh NW 16.1 mph25.9 kmh 30.26 in1024.7 mb 0.00 in0.0 mm 0.00 in0.0 mm 0.07 in1.8 mm
01:00 PM 57.0°F13.9°C 49.8°F9.9°C 77% 8.9 mph NNW14.3 kmh NNW 16.1 mph25.9 kmh 30.26 in1024.7 mb 0.00 in0.0 mm 0.00 in0.0 mm 0.07 in1.8 mm
01:10 PM 56.1°F13.4°C 49.3°F9.6°C 78% 8.9 mph N14.3 kmh N 15.0 mph24.1 kmh 30.26 in1024.7 mb 0.00 in0.0 mm 0.00 in0.0 mm 0.07 in1.8 mm
01:20 PM 55.8°F13.2°C 48.9°F9.4°C 78% 8.1 mph NNW13.0 kmh NNW 12.1 mph19.5 kmh 30.26 in1024.7 mb 0.00 in0.0 mm 0.00 in0.0 mm 0.07 in1.8 mm
01:30 PM 55.2°F12.9°C 48.7°F9.3°C 79% 8.1 mph NNW13.0 kmh NNW 15.0 mph24.1 kmh 30.27 in1025.1 mb 0.00 in0.0 mm 0.00 in0.0 mm 0.07 in1.8 mm
01:41 PM 54.7°F12.6°C 48.6°F9.2°C 80% 8.9 mph NW14.3 kmh NW 15.0 mph24.1 kmh 30.27 in1025.1 mb 0.00 in0.0 mm 0.00 in0.0 mm 0.07 in1.8 mm
01:51 PM 53.8°F12.1°C 49.1°F9.5°C 84% 10.1 mph NNW16.3 kmh NNW 16.1 mph25.9 kmh 30.28 in1025.4 mb 0.00 in0.0 mm 0.00 in0.0 mm 0.07 in1.8 mm
02:01 PM 53.2°F11.8°C 49.1°F9.5°C 86% 6.0 mph N9.7 kmh N 12.1 mph19.5 kmh 30.27 in1025.1 mb 0.00 in0.0 mm 0.00 in0.0 mm 0.07 in1.8 mm
02:11 PM 53.4°F11.9°C 49.3°F9.6°C 86% 8.1 mph NW13.0 kmh NW 15.0 mph24.1 kmh 30.28 in1025.4 mb 0.00 in0.0 mm 0.00 in0.0 mm 0.07 in1.8 mm
02:21 PM 53.8°F12.1°C 49.5°F9.7°C 85% 6.9 mph NNW11.1 kmh NNW 17.0 mph27.4 kmh 30.27 in1025.1 mb 0.00 in0.0 mm 0.00 in0.0 mm 0.07 in1.8 mm
02:31 PM 54.3°F12.4°C 48.9°F9.4°C 82% 8.9 mph NW14.3 kmh NW 16.1 mph25.9 kmh 30.27 in1025.1 mb 0.00 in0.0 mm 0.00 in0.0 mm 0.07 in1.8 mm
02:41 PM 54.9°F12.7°C 49.1°F9.5°C 81% 6.9 mph NNE11.1 kmh NNE 13.0 mph20.9 kmh 30.27 in1025.1 mb 0.00 in0.0 mm 0.00 in0.0 mm 0.07 in1.8 mm
02:51 PM 54.9°F12.7°C 48.6°F9.2°C 79% 8.9 mph NNW14.3 kmh NNW 17.9 mph28.8 kmh 30.28 in1025.4 mb 0.00 in0.0 mm 0.00 in0.0 mm 0.07 in1.8 mm
03:01 PM 54.9°F12.7°C 48.6°F9.2°C 79% 8.9 mph N14.3 kmh N 14.1 mph22.7 kmh 30.27 in1025.1 mb 0.00 in0.0 mm 0.00 in0.0 mm 0.07 in1.8 mm
03:11 PM 55.4°F13.0°C 48.9°F9.4°C 79% 8.1 mph NW13.0 kmh NW 17.0 mph27.4 kmh 30.27 in1025.1 mb 0.00 in0.0 mm 0.00 in0.0 mm 0.07 in1.8 mm
03:21 PM 55.2°F12.9°C 48.7°F9.3°C 79% 10.1 mph WNW16.3 kmh WNW 14.1 mph22.7 kmh 30.27 in1025.1 mb 0.00 in0.0 mm 0.00 in0.0 mm 0.07 in1.8 mm
03:31 PM 55.4°F13.0°C 48.4°F9.1°C 77% 8.9 mph N14.3 kmh N 16.1 mph25.9 kmh 30.26 in1024.7 mb 0.00 in0.0 mm 0.00 in0.0 mm 0.07 in1.8 mm
03:41 PM 55.6°F13.1°C 47.8°F8.8°C 75% 6.9 mph NNW11.1 kmh NNW 17.0 mph27.4 kmh 30.26 in1024.7 mb 0.00 in0.0 mm 0.00 in0.0 mm 0.07 in1.8 mm
03:51 PM 55.6°F13.1°C 47.5°F8.6°C 74% 8.9 mph N14.3 kmh N 15.0 mph24.1 kmh 30.26 in1024.7 mb 0.00 in0.0 mm 0.00 in0.0 mm 0.07 in1.8 mm
04:01 PM 55.8°F13.2°C 47.3°F8.5°C 73% 8.9 mph NW14.3 kmh NW 14.1 mph22.7 kmh 30.27 in1025.1 mb 0.00 in0.0 mm 0.00 in0.0 mm 0.07 in1.8 mm
04:11 PM 55.8°F13.2°C 47.3°F8.5°C 73% 8.9 mph NNW14.3 kmh NNW 16.1 mph25.9 kmh 30.27 in1025.1 mb 0.00 in0.0 mm 0.00 in0.0 mm 0.07 in1.8 mm
04:21 PM 55.9°F13.3°C 48.2°F9.0°C 75% 8.1 mph NW13.0 kmh NW 15.0 mph24.1 kmh 30.27 in1025.1 mb 0.00 in0.0 mm 0.00 in0.0 mm 0.07 in1.8 mm
04:31 PM 54.7°F12.6°C 47.7°F8.7°C 77% 11.0 mph NW17.7 kmh NW 16.1 mph25.9 kmh 30.28 in1025.4 mb 0.00 in0.0 mm 0.00 in0.0 mm 0.07 in1.8 mm
04:41 PM 54.1°F12.3°C 47.8°F8.8°C 79% 10.1 mph WNW16.3 kmh WNW 16.1 mph25.9 kmh 30.28 in1025.4 mb 0.00 in0.0 mm 0.00 in0.0 mm 0.07 in1.8 mm
04:51 PM 54.0°F12.2°C 47.3°F8.5°C 78% 8.9 mph NNW14.3 kmh NNW 15.0 mph24.1 kmh 30.29 in1025.7 mb 0.00 in0.0 mm 0.00 in0.0 mm 0.07 in1.8 mm
05:01 PM 53.6°F12.0°C 46.9°F8.3°C 78% 8.9 mph NW14.3 kmh NW 17.9 mph28.8 kmh 30.29 in1025.7 mb 0.00 in0.0 mm 0.00 in0.0 mm 0.07 in1.8 mm
05:11 PM 53.1°F11.7°C 46.8°F8.2°C 79% 8.9 mph WNW14.3 kmh WNW 14.1 mph22.7 kmh 30.29 in1025.7 mb 0.00 in0.0 mm 0.00 in0.0 mm 0.07 in1.8 mm
05:21 PM 52.7°F11.5°C 46.8°F8.2°C 80% 8.1 mph NW13.0 kmh NW 16.1 mph25.9 kmh 30.29 in1025.7 mb 0.00 in0.0 mm 0.00 in0.0 mm 0.07 in1.8 mm
05:31 PM 52.5°F11.4°C 46.9°F8.3°C 81% 6.9 mph NNW11.1 kmh NNW 14.1 mph22.7 kmh 30.29 in1025.7 mb 0.00 in0.0 mm 0.00 in0.0 mm 0.07 in1.8 mm
05:41 PM 52.3°F11.3°C 46.9°F8.3°C 82% 6.9 mph NW11.1 kmh NW 16.1 mph25.9 kmh 30.29 in1025.7 mb 0.00 in0.0 mm 0.00 in0.0 mm 0.07 in1.8 mm
05:51 PM 52.2°F11.2°C 46.8°F8.2°C 82% 6.9 mph N11.1 kmh N 13.0 mph20.9 kmh 30.30 in1026.1 mb 0.00 in0.0 mm 0.00 in0.0 mm 0.07 in1.8 mm
06:01 PM 52.0°F11.1°C 46.6°F8.1°C 82% 8.1 mph N13.0 kmh N 16.1 mph25.9 kmh 30.30 in1026.1 mb 0.00 in0.0 mm 0.00 in0.0 mm 0.07 in1.8 mm
06:11 PM 51.6°F10.9°C 46.6°F8.1°C 83% 6.0 mph N9.7 kmh N 13.0 mph20.9 kmh 30.30 in1026.1 mb 0.00 in0.0 mm 0.00 in0.0 mm 0.07 in1.8 mm
06:21 PM 51.6°F10.9°C 46.6°F8.1°C 83% 8.1 mph NNE13.0 kmh NNE 14.1 mph22.7 kmh 30.31 in1026.4 mb 0.00 in0.0 mm 0.00 in0.0 mm 0.07 in1.8 mm
06:31 PM 51.4°F10.8°C 46.4°F8.0°C 83% 6.9 mph N11.1 kmh N 14.1 mph22.7 kmh 30.31 in1026.4 mb 0.00 in0.0 mm 0.00 in0.0 mm 0.07 in1.8 mm
06:41 PM 51.3°F10.7°C 46.2°F7.9°C 83% 6.0 mph N9.7 kmh N 12.1 mph19.5 kmh 30.31 in1026.4 mb 0.00 in0.0 mm 0.00 in0.0 mm 0.07 in1.8 mm
06:51 PM 51.1°F10.6°C 46.0°F7.8°C 83% 6.9 mph N11.1 kmh N 13.0 mph20.9 kmh 30.32 in1026.8 mb 0.00 in0.0 mm 0.00 in0.0 mm 0.07 in1.8 mm
07:01 PM 51.1°F10.6°C 46.4°F8.0°C 84% 6.9 mph N11.1 kmh N 16.1 mph25.9 kmh 30.32 in1026.8 mb 0.00 in0.0 mm 0.00 in0.0 mm 0.07 in1.8 mm
07:11 PM 50.9°F10.5°C 46.2°F7.9°C 84% 4.9 mph NNW7.9 kmh NNW 11.0 mph17.7 kmh 30.31 in1026.4 mb 0.00 in0.0 mm 0.00 in0.0 mm 0.07 in1.8 mm
07:21 PM 50.7°F10.4°C 46.4°F8.0°C 85% 4.9 mph NNW7.9 kmh NNW 8.9 mph14.3 kmh 30.32 in1026.8 mb 0.00 in0.0 mm 0.00 in0.0 mm 0.07 in1.8 mm
07:31 PM 50.5°F10.3°C 46.2°F7.9°C 85% 6.0 mph NNW9.7 kmh NNW 12.1 mph19.5 kmh 30.32 in1026.8 mb 0.00 in0.0 mm 0.00 in0.0 mm 0.07 in1.8 mm
07:42 PM 50.5°F10.3°C 46.6°F8.1°C 86% 6.0 mph NNW9.7 kmh NNW 14.1 mph22.7 kmh 30.32 in1026.8 mb 0.00 in0.0 mm 0.00 in0.0 mm 0.07 in1.8 mm
07:52 PM 50.4°F10.2°C 46.4°F8.0°C 86% 4.9 mph NNW7.9 kmh NNW 11.0 mph17.7 kmh 30.32 in1026.8 mb 0.00 in0.0 mm 0.00 in0.0 mm 0.07 in1.8 mm
08:02 PM 50.4°F10.2°C 46.4°F8.0°C 86% 6.0 mph N9.7 kmh N 12.1 mph19.5 kmh 30.32 in1026.8 mb 0.00 in0.0 mm 0.00 in0.0 mm 0.07 in1.8 mm
08:12 PM 50.4°F10.2°C 46.6°F8.1°C 87% 6.0 mph NNW9.7 kmh NNW 13.0 mph20.9 kmh 30.33 in1027.1 mb 0.00 in0.0 mm 0.00 in0.0 mm 0.07 in1.8 mm
08:22 PM 50.2°F10.1°C 46.4°F8.0°C 87% 6.0 mph N9.7 kmh N 10.1 mph16.3 kmh 30.33 in1027.1 mb 0.00 in0.0 mm 0.00 in0.0 mm 0.07 in1.8 mm
08:32 PM 50.2°F10.1°C 46.4°F8.0°C 87% 6.0 mph NW9.7 kmh NW 11.0 mph17.7 kmh 30.34 in1027.4 mb 0.00 in0.0 mm 0.00 in0.0 mm 0.07 in1.8 mm
08:42 PM 50.0°F10.0°C 46.2°F7.9°C 87% 6.0 mph NNE9.7 kmh NNE 12.1 mph19.5 kmh 30.33 in1027.1 mb 0.00 in0.0 mm 0.00 in0.0 mm 0.07 in1.8 mm
08:52 PM 50.0°F10.0°C 46.2°F7.9°C 87% 4.9 mph NW7.9 kmh NW 10.1 mph16.3 kmh 30.34 in1027.4 mb 0.00 in0.0 mm 0.00 in0.0 mm 0.07 in1.8 mm
09:02 PM 50.0°F10.0°C 46.2°F7.9°C 87% 6.0 mph NW9.7 kmh NW 11.0 mph17.7 kmh 30.34 in1027.4 mb 0.00 in0.0 mm 0.00 in0.0 mm 0.07 in1.8 mm
09:12 PM 50.2°F10.1°C 46.4°F8.0°C 87% 4.9 mph NW7.9 kmh NW 11.0 mph17.7 kmh 30.34 in1027.4 mb 0.00 in0.0 mm 0.00 in0.0 mm 0.07 in1.8 mm
09:22 PM 49.8°F9.9°C 46.0°F7.8°C 87% 2.9 mph N4.7 kmh N 10.1 mph16.3 kmh 30.34 in1027.4 mb 0.00 in0.0 mm 0.00 in0.0 mm 0.07 in1.8 mm
09:32 PM 49.3°F9.6°C 45.3°F7.4°C 86% Calm Calm -- 30.35 in1027.8 mb 0.00 in0.0 mm 0.00 in0.0 mm 0.07 in1.8 mm
09:42 PM 48.4°F9.1°C 44.8°F7.1°C 87% Calm Calm -- 30.36 in1028.1 mb 0.00 in0.0 mm 0.00 in0.0 mm 0.07 in1.8 mm
09:52 PM 47.1°F8.4°C 43.5°F6.4°C 87% Calm Calm -- 30.36 in1028.1 mb 0.00 in0.0 mm 0.00 in0.0 mm 0.07 in1.8 mm
10:02 PM 46.0°F7.8°C 42.6°F5.9°C 88% Calm Calm -- 30.36 in1028.1 mb 0.00 in0.0 mm 0.00 in0.0 mm 0.07 in1.8 mm
10:13 PM 45.5°F7.5°C 42.4°F5.8°C 89% Calm Calm -- 30.35 in1027.8 mb 0.00 in0.0 mm 0.00 in0.0 mm 0.07 in1.8 mm
10:23 PM 44.8°F7.1°C 42.1°F5.6°C 90% Calm Calm -- 30.35 in1027.8 mb 0.00 in0.0 mm 0.00 in0.0 mm 0.07 in1.8 mm
10:33 PM 44.1°F6.7°C 41.4°F5.2°C 90% Calm Calm -- 30.35 in1027.8 mb 0.00 in0.0 mm 0.00 in0.0 mm 0.07 in1.8 mm
10:43 PM 43.3°F6.3°C 40.8°F4.9°C 91% Calm Calm -- 30.35 in1027.8 mb 0.00 in0.0 mm 0.00 in0.0 mm 0.07 in1.8 mm
10:53 PM 43.9°F6.6°C 41.7°F5.4°C 92% Calm Calm -- 30.35 in1027.8 mb 0.00 in0.0 mm 0.00 in0.0 mm 0.07 in1.8 mm
11:03 PM 44.4°F6.9°C 42.3°F5.7°C 92% Calm Calm -- 30.35 in1027.8 mb 0.00 in0.0 mm 0.00 in0.0 mm 0.07 in1.8 mm
11:13 PM 44.8°F7.1°C 42.6°F5.9°C 92% Calm Calm -- 30.35 in1027.8 mb 0.00 in0.0 mm 0.00 in0.0 mm 0.07 in1.8 mm
11:23 PM 44.4°F6.9°C 41.9°F5.5°C 91% Calm Calm -- 30.35 in1027.8 mb 0.00 in0.0 mm 0.00 in0.0 mm 0.07 in1.8 mm
11:34 PM 43.5°F6.4°C 41.0°F5.0°C 91% Calm Calm -- 30.36 in1028.1 mb 0.00 in0.0 mm 0.00 in0.0 mm 0.07 in1.8 mm
11:44 PM 43.0°F6.1°C 40.5°F4.7°C 91% Calm Calm -- 30.35 in1027.8 mb 0.00 in0.0 mm 0.00 in0.0 mm 0.07 in1.8 mm
11:54 PM 42.4°F5.8°C 40.3°F4.6°C 92% Calm Calm -- 30.36 in1028.1 mb 0.00 in0.0 mm 0.00 in0.0 mm 0.07 in1.8 mm